sensor_id;sensor_type;location;lat;lon;timestamp;temperature;humidity
5459;DHT22;2752;49.992;8.422;2023-07-13T00:01:27;19.90;1.00
5459;DHT22;2752;49.992;8.422;2023-07-13T00:03:54;20.00;1.00
5459;DHT22;2752;49.992;8.422;2023-07-13T00:06:21;20.20;1.00
5459;DHT22;2752;49.992;8.422;2023-07-13T00:08:48;20.20;1.00
5459;DHT22;2752;49.992;8.422;2023-07-13T00:11:15;20.00;1.00
5459;DHT22;2752;49.992;8.422;2023-07-13T00:13:44;20.30;1.00
5459;DHT22;2752;49.992;8.422;2023-07-13T00:16:11;20.30;1.00
5459;DHT22;2752;49.992;8.422;2023-07-13T00:18:39;20.20;1.00
5459;DHT22;2752;49.992;8.422;2023-07-13T00:21:06;20.20;1.00
5459;DHT22;2752;49.992;8.422;2023-07-13T00:23:33;20.30;1.00
5459;DHT22;2752;49.992;8.422;2023-07-13T00:26:02;20.10;1.00
5459;DHT22;2752;49.992;8.422;2023-07-13T00:28:28;20.00;1.00
5459;DHT22;2752;49.992;8.422;2023-07-13T00:30:57;20.00;1.00
5459;DHT22;2752;49.992;8.422;2023-07-13T00:33:23;20.00;1.00
5459;DHT22;2752;49.992;8.422;2023-07-13T00:35:50;20.00;1.00
5459;DHT22;2752;49.992;8.422;2023-07-13T00:38:17;19.90;1.00
5459;DHT22;2752;49.992;8.422;2023-07-13T00:40:43;19.80;1.00
5459;DHT22;2752;49.992;8.422;2023-07-13T00:43:13;20.00;1.00
5459;DHT22;2752;49.992;8.422;2023-07-13T00:46:14;19.90;1.00
5459;DHT22;2752;49.992;8.422;2023-07-13T00:48:41;20.00;1.00
5459;DHT22;2752;49.992;8.422;2023-07-13T00:51:10;20.20;1.00
5459;DHT22;2752;49.992;8.422;2023-07-13T00:53:37;20.10;1.00
5459;DHT22;2752;49.992;8.422;2023-07-13T00:56:04;20.10;1.00
5459;DHT22;2752;49.992;8.422;2023-07-13T00:58:32;20.10;1.00
5459;DHT22;2752;49.992;8.422;2023-07-13T01:03:28;20.00;1.00
5459;DHT22;2752;49.992;8.422;2023-07-13T01:05:55;20.00;1.00
5459;DHT22;2752;49.992;8.422;2023-07-13T01:08:22;20.00;1.00
5459;DHT22;2752;49.992;8.422;2023-07-13T01:10:53;20.00;1.00
5459;DHT22;2752;49.992;8.422;2023-07-13T01:13:20;19.80;1.00
5459;DHT22;2752;49.992;8.422;2023-07-13T01:15:48;19.90;1.00
5459;DHT22;2752;49.992;8.422;2023-07-13T01:18:18;19.70;1.00
5459;DHT22;2752;49.992;8.422;2023-07-13T01:20:51;19.60;1.00
5459;DHT22;2752;49.992;8.422;2023-07-13T01:23:18;19.50;1.00
5459;DHT22;2752;49.992;8.422;2023-07-13T01:25:45;19.50;1.00
5459;DHT22;2752;49.992;8.422;2023-07-13T01:28:13;19.50;1.00
5459;DHT22;2752;49.992;8.422;2023-07-13T01:30:41;19.40;1.00
5459;DHT22;2752;49.992;8.422;2023-07-13T01:33:08;19.40;1.00
5459;DHT22;2752;49.992;8.422;2023-07-13T01:35:35;19.40;1.00
5459;DHT22;2752;49.992;8.422;2023-07-13T01:38:04;19.40;1.00
5459;DHT22;2752;49.992;8.422;2023-07-13T01:40:31;19.30;1.00
5459;DHT22;2752;49.992;8.422;2023-07-13T01:42:58;19.30;1.00
5459;DHT22;2752;49.992;8.422;2023-07-13T01:47:52;19.30;1.00
5459;DHT22;2752;49.992;8.422;2023-07-13T01:50:19;19.30;1.00
5459;DHT22;2752;49.992;8.422;2023-07-13T01:52:46;19.30;1.00
5459;DHT22;2752;49.992;8.422;2023-07-13T01:55:14;19.30;1.00
5459;DHT22;2752;49.992;8.422;2023-07-13T01:57:40;19.30;1.00
5459;DHT22;2752;49.992;8.422;2023-07-13T02:00:10;19.30;1.00
5459;DHT22;2752;49.992;8.422;2023-07-13T02:02:37;19.20;1.00
5459;DHT22;2752;49.992;8.422;2023-07-13T02:07:30;19.20;1.00
5459;DHT22;2752;49.992;8.422;2023-07-13T02:09:57;19.20;1.00
5459;DHT22;2752;49.992;8.422;2023-07-13T02:12:25;19.30;1.00
5459;DHT22;2752;49.992;8.422;2023-07-13T02:14:52;19.20;1.00
5459;DHT22;2752;49.992;8.422;2023-07-13T02:17:19;19.20;1.00
5459;DHT22;2752;49.992;8.422;2023-07-13T02:19:45;19.20;1.00
5459;DHT22;2752;49.992;8.422;2023-07-13T02:22:12;19.20;1.00
5459;DHT22;2752;49.992;8.422;2023-07-13T02:24:39;19.20;1.00
5459;DHT22;2752;49.992;8.422;2023-07-13T02:27:06;19.10;1.00
5459;DHT22;2752;49.992;8.422;2023-07-13T02:29:34;19.10;1.00
5459;DHT22;2752;49.992;8.422;2023-07-13T02:32:01;18.90;1.00
5459;DHT22;2752;49.992;8.422;2023-07-13T02:34:29;18.70;1.00
5459;DHT22;2752;49.992;8.422;2023-07-13T02:36:56;18.70;1.00
5459;DHT22;2752;49.992;8.422;2023-07-13T02:39:23;18.70;1.00
5459;DHT22;2752;49.992;8.422;2023-07-13T02:41:49;18.80;1.00
5459;DHT22;2752;49.992;8.422;2023-07-13T02:44:17;18.70;1.00
5459;DHT22;2752;49.992;8.422;2023-07-13T02:46:46;18.60;1.00
5459;DHT22;2752;49.992;8.422;2023-07-13T02:49:12;18.70;1.00
5459;DHT22;2752;49.992;8.422;2023-07-13T02:51:39;18.60;1.00
5459;DHT22;2752;49.992;8.422;2023-07-13T02:54:06;18.50;1.00
5459;DHT22;2752;49.992;8.422;2023-07-13T02:56:34;18.40;1.00
5459;DHT22;2752;49.992;8.422;2023-07-13T02:59:00;18.20;1.00
5459;DHT22;2752;49.992;8.422;2023-07-13T03:01:27;18.10;1.00
5459;DHT22;2752;49.992;8.422;2023-07-13T03:03:55;18.00;1.00
5459;DHT22;2752;49.992;8.422;2023-07-13T03:06:22;17.80;1.00
5459;DHT22;2752;49.992;8.422;2023-07-13T03:08:50;17.70;1.00
5459;DHT22;2752;49.992;8.422;2023-07-13T03:11:19;17.60;1.00
5459;DHT22;2752;49.992;8.422;2023-07-13T03:13:46;17.50;1.00
5459;DHT22;2752;49.992;8.422;2023-07-13T03:16:14;17.50;1.00
5459;DHT22;2752;49.992;8.422;2023-07-13T03:18:42;17.50;1.00
5459;DHT22;2752;49.992;8.422;2023-07-13T03:21:13;17.40;1.00
5459;DHT22;2752;49.992;8.422;2023-07-13T03:26:10;17.20;1.00
5459;DHT22;2752;49.992;8.422;2023-07-13T03:28:37;17.10;1.00
5459;DHT22;2752;49.992;8.422;2023-07-13T03:31:05;16.90;1.00
5459;DHT22;2752;49.992;8.422;2023-07-13T03:33:32;17.00;1.00
5459;DHT22;2752;49.992;8.422;2023-07-13T03:35:59;17.20;1.00
5459;DHT22;2752;49.992;8.422;2023-07-13T03:53:09;16.50;1.00
5459;DHT22;2752;49.992;8.422;2023-07-13T03:55:37;16.50;1.00
5459;DHT22;2752;49.992;8.422;2023-07-13T03:58:26;16.50;1.00
5459;DHT22;2752;49.992;8.422;2023-07-13T04:00:54;16.70;1.00
5459;DHT22;2752;49.992;8.422;2023-07-13T04:03:21;16.80;1.00
5459;DHT22;2752;49.992;8.422;2023-07-13T04:05:47;17.00;1.00
5459;DHT22;2752;49.992;8.422;2023-07-13T04:08:14;17.20;1.00
5459;DHT22;2752;49.992;8.422;2023-07-13T04:10:42;17.30;1.00
5459;DHT22;2752;49.992;8.422;2023-07-13T04:13:09;17.50;1.00
5459;DHT22;2752;49.992;8.422;2023-07-13T04:15:36;17.60;1.00
5459;DHT22;2752;49.992;8.422;2023-07-13T04:18:03;17.80;1.00
5459;DHT22;2752;49.992;8.422;2023-07-13T04:20:29;18.00;1.00
5459;DHT22;2752;49.992;8.422;2023-07-13T04:22:56;18.20;1.00
5459;DHT22;2752;49.992;8.422;2023-07-13T04:25:24;18.20;1.00
5459;DHT22;2752;49.992;8.422;2023-07-13T04:27:53;18.10;1.00
5459;DHT22;2752;49.992;8.422;2023-07-13T04:30:20;17.90;1.00
5459;DHT22;2752;49.992;8.422;2023-07-13T04:32:47;17.80;1.00
5459;DHT22;2752;49.992;8.422;2023-07-13T04:35:13;17.70;1.00
5459;DHT22;2752;49.992;8.422;2023-07-13T04:37:40;17.60;1.00
5459;DHT22;2752;49.992;8.422;2023-07-13T04:40:08;17.50;1.00
5459;DHT22;2752;49.992;8.422;2023-07-13T04:42:37;17.40;1.00
5459;DHT22;2752;49.992;8.422;2023-07-13T04:45:07;17.40;1.00
5459;DHT22;2752;49.992;8.422;2023-07-13T04:47:34;17.40;1.00
5459;DHT22;2752;49.992;8.422;2023-07-13T04:50:00;17.40;1.00
5459;DHT22;2752;49.992;8.422;2023-07-13T04:52:27;17.40;1.00
5459;DHT22;2752;49.992;8.422;2023-07-13T04:54:54;17.50;1.00
5459;DHT22;2752;49.992;8.422;2023-07-13T04:57:20;17.50;1.00
5459;DHT22;2752;49.992;8.422;2023-07-13T04:59:47;17.60;1.00
5459;DHT22;2752;49.992;8.422;2023-07-13T05:02:15;17.70;1.00
5459;DHT22;2752;49.992;8.422;2023-07-13T05:04:42;17.70;1.00
5459;DHT22;2752;49.992;8.422;2023-07-13T05:07:09;17.80;1.00
5459;DHT22;2752;49.992;8.422;2023-07-13T05:09:36;17.80;1.00
5459;DHT22;2752;49.992;8.422;2023-07-13T05:12:03;17.90;1.00
5459;DHT22;2752;49.992;8.422;2023-07-13T05:14:30;18.00;1.00
5459;DHT22;2752;49.992;8.422;2023-07-13T05:16:56;18.20;1.00
5459;DHT22;2752;49.992;8.422;2023-07-13T05:19:25;18.20;1.00
5459;DHT22;2752;49.992;8.422;2023-07-13T05:21:51;18.30;1.00
5459;DHT22;2752;49.992;8.422;2023-07-13T05:24:18;18.40;1.00
5459;DHT22;2752;49.992;8.422;2023-07-13T05:26:45;18.50;1.00
5459;DHT22;2752;49.992;8.422;2023-07-13T05:29:12;18.50;1.00
5459;DHT22;2752;49.992;8.422;2023-07-13T05:31:38;18.90;1.00
5459;DHT22;2752;49.992;8.422;2023-07-13T05:34:05;19.10;1.00
5459;DHT22;2752;49.992;8.422;2023-07-13T05:36:34;19.20;1.00
5459;DHT22;2752;49.992;8.422;2023-07-13T05:39:00;19.30;1.00
5459;DHT22;2752;49.992;8.422;2023-07-13T05:41:29;19.40;1.00
5459;DHT22;2752;49.992;8.422;2023-07-13T05:43:55;19.50;1.00
5459;DHT22;2752;49.992;8.422;2023-07-13T05:46:22;19.60;1.00
5459;DHT22;2752;49.992;8.422;2023-07-13T05:48:48;19.70;1.00
5459;DHT22;2752;49.992;8.422;2023-07-13T05:51:15;19.80;1.00
5459;DHT22;2752;49.992;8.422;2023-07-13T05:53:43;20.00;1.00
5459;DHT22;2752;49.992;8.422;2023-07-13T05:56:10;19.90;1.00
5459;DHT22;2752;49.992;8.422;2023-07-13T05:58:37;19.90;1.00
5459;DHT22;2752;49.992;8.422;2023-07-13T06:01:05;20.00;1.00
5459;DHT22;2752;49.992;8.422;2023-07-13T06:03:33;20.00;1.00
5459;DHT22;2752;49.992;8.422;2023-07-13T06:05:59;20.00;1.00
5459;DHT22;2752;49.992;8.422;2023-07-13T06:08:26;20.10;1.00
5459;DHT22;2752;49.992;8.422;2023-07-13T06:10:58;20.10;1.00
5459;DHT22;2752;49.992;8.422;2023-07-13T06:13:27;20.20;1.00
5459;DHT22;2752;49.992;8.422;2023-07-13T06:15:54;20.30;1.00
5459;DHT22;2752;49.992;8.422;2023-07-13T06:18:20;20.30;1.00
5459;DHT22;2752;49.992;8.422;2023-07-13T06:20:47;20.30;1.00
5459;DHT22;2752;49.992;8.422;2023-07-13T06:23:14;20.40;1.00
5459;DHT22;2752;49.992;8.422;2023-07-13T06:25:40;20.40;1.00
5459;DHT22;2752;49.992;8.422;2023-07-13T06:28:08;20.40;1.00
5459;DHT22;2752;49.992;8.422;2023-07-13T06:30:38;20.60;1.00
5459;DHT22;2752;49.992;8.422;2023-07-13T06:33:04;20.70;1.00
5459;DHT22;2752;49.992;8.422;2023-07-13T06:35:31;20.60;1.00
5459;DHT22;2752;49.992;8.422;2023-07-13T06:37:59;20.70;1.00
5459;DHT22;2752;49.992;8.422;2023-07-13T06:40:26;20.70;1.00
5459;DHT22;2752;49.992;8.422;2023-07-13T06:42:54;20.80;1.00
5459;DHT22;2752;49.992;8.422;2023-07-13T06:45:22;20.80;1.00
5459;DHT22;2752;49.992;8.422;2023-07-13T06:47:49;20.90;1.00
5459;DHT22;2752;49.992;8.422;2023-07-13T06:50:15;21.10;1.00
5459;DHT22;2752;49.992;8.422;2023-07-13T06:52:42;21.10;1.00
5459;DHT22;2752;49.992;8.422;2023-07-13T06:55:09;21.20;1.00
5459;DHT22;2752;49.992;8.422;2023-07-13T06:57:35;21.30;1.00
5459;DHT22;2752;49.992;8.422;2023-07-13T07:00:03;21.50;1.00
5459;DHT22;2752;49.992;8.422;2023-07-13T07:02:32;21.60;1.00
5459;DHT22;2752;49.992;8.422;2023-07-13T07:04:58;21.60;1.00
5459;DHT22;2752;49.992;8.422;2023-07-13T07:07:26;21.60;1.00
5459;DHT22;2752;49.992;8.422;2023-07-13T07:09:52;21.70;1.00
5459;DHT22;2752;49.992;8.422;2023-07-13T07:12:19;21.90;1.00
5459;DHT22;2752;49.992;8.422;2023-07-13T07:14:46;22.00;1.00
5459;DHT22;2752;49.992;8.422;2023-07-13T07:17:12;22.10;1.00
5459;DHT22;2752;49.992;8.422;2023-07-13T07:19:40;22.20;1.00
5459;DHT22;2752;49.992;8.422;2023-07-13T07:22:07;22.30;1.00
5459;DHT22;2752;49.992;8.422;2023-07-13T07:24:34;22.40;1.00
5459;DHT22;2752;49.992;8.422;2023-07-13T07:27:00;22.50;1.00
5459;DHT22;2752;49.992;8.422;2023-07-13T07:29:27;22.50;1.00
5459;DHT22;2752;49.992;8.422;2023-07-13T07:31:54;22.60;1.00
5459;DHT22;2752;49.992;8.422;2023-07-13T07:34:20;22.60;1.00
5459;DHT22;2752;49.992;8.422;2023-07-13T07:36:48;22.50;1.00
5459;DHT22;2752;49.992;8.422;2023-07-13T07:39:15;22.60;1.00
5459;DHT22;2752;49.992;8.422;2023-07-13T07:44:09;22.70;1.00
5459;DHT22;2752;49.992;8.422;2023-07-13T07:46:36;22.80;1.00
5459;DHT22;2752;49.992;8.422;2023-07-13T07:49:02;22.80;1.00
5459;DHT22;2752;49.992;8.422;2023-07-13T07:51:29;22.70;1.00
5459;DHT22;2752;49.992;8.422;2023-07-13T07:53:57;22.80;1.00
5459;DHT22;2752;49.992;8.422;2023-07-13T07:56:24;22.80;1.00
5459;DHT22;2752;49.992;8.422;2023-07-13T07:58:50;22.70;1.00
5459;DHT22;2752;49.992;8.422;2023-07-13T08:01:17;22.60;1.00
5459;DHT22;2752;49.992;8.422;2023-07-13T08:03:44;22.80;1.00
5459;DHT22;2752;49.992;8.422;2023-07-13T08:06:10;23.00;1.00
5459;DHT22;2752;49.992;8.422;2023-07-13T08:08:37;23.20;1.00
5459;DHT22;2752;49.992;8.422;2023-07-13T08:11:06;23.20;1.00
5459;DHT22;2752;49.992;8.422;2023-07-13T08:13:33;23.50;1.00
5459;DHT22;2752;49.992;8.422;2023-07-13T08:16:00;23.60;1.00
5459;DHT22;2752;49.992;8.422;2023-07-13T08:18:27;23.70;1.00
5459;DHT22;2752;49.992;8.422;2023-07-13T08:20:54;23.90;1.00
5459;DHT22;2752;49.992;8.422;2023-07-13T08:23:21;23.80;1.00
5459;DHT22;2752;49.992;8.422;2023-07-13T08:25:50;23.90;1.00
5459;DHT22;2752;49.992;8.422;2023-07-13T08:28:19;23.90;1.00
5459;DHT22;2752;49.992;8.422;2023-07-13T08:30:45;23.50;1.00
5459;DHT22;2752;49.992;8.422;2023-07-13T08:33:14;23.20;1.00
5459;DHT22;2752;49.992;8.422;2023-07-13T08:35:41;23.20;1.00
5459;DHT22;2752;49.992;8.422;2023-07-13T08:38:07;23.30;1.00
5459;DHT22;2752;49.992;8.422;2023-07-13T08:40:34;23.50;1.00
5459;DHT22;2752;49.992;8.422;2023-07-13T08:43:01;23.50;1.00
5459;DHT22;2752;49.992;8.422;2023-07-13T08:45:44;23.70;1.00
5459;DHT22;2752;49.992;8.422;2023-07-13T08:48:16;24.00;1.00
5459;DHT22;2752;49.992;8.422;2023-07-13T08:50:50;24.00;1.00
5459;DHT22;2752;49.992;8.422;2023-07-13T08:53:18;24.00;1.00
5459;DHT22;2752;49.992;8.422;2023-07-13T08:55:46;24.00;1.00
5459;DHT22;2752;49.992;8.422;2023-07-13T08:58:14;24.10;1.00
5459;DHT22;2752;49.992;8.422;2023-07-13T09:00:48;24.30;1.00
5459;DHT22;2752;49.992;8.422;2023-07-13T09:03:24;24.50;1.00
5459;DHT22;2752;49.992;8.422;2023-07-13T09:05:56;24.50;1.00
5459;DHT22;2752;49.992;8.422;2023-07-13T09:11:07;24.20;1.00
5459;DHT22;2752;49.992;8.422;2023-07-13T09:13:45;24.40;1.00
5459;DHT22;2752;49.992;8.422;2023-07-13T09:16:16;24.40;1.00
5459;DHT22;2752;49.992;8.422;2023-07-13T09:18:47;24.50;1.00
5459;DHT22;2752;49.992;8.422;2023-07-13T09:23:43;24.70;1.00
5459;DHT22;2752;49.992;8.422;2023-07-13T09:26:14;24.80;1.00
5459;DHT22;2752;49.992;8.422;2023-07-13T09:28:44;24.80;1.00
5459;DHT22;2752;49.992;8.422;2023-07-13T09:31:14;25.00;1.00
5459;DHT22;2752;49.992;8.422;2023-07-13T09:33:43;25.00;1.00
5459;DHT22;2752;49.992;8.422;2023-07-13T09:36:19;25.10;1.00
5459;DHT22;2752;49.992;8.422;2023-07-13T09:38:48;25.40;1.00
5459;DHT22;2752;49.992;8.422;2023-07-13T09:41:21;25.60;1.00
5459;DHT22;2752;49.992;8.422;2023-07-13T09:44:11;25.50;1.00
5459;DHT22;2752;49.992;8.422;2023-07-13T09:46:39;25.00;1.00
5459;DHT22;2752;49.992;8.422;2023-07-13T09:49:09;24.80;1.00
5459;DHT22;2752;49.992;8.422;2023-07-13T09:51:37;24.90;1.00
5459;DHT22;2752;49.992;8.422;2023-07-13T09:54:03;24.90;1.00
5459;DHT22;2752;49.992;8.422;2023-07-13T09:56:31;24.90;1.00
5459;DHT22;2752;49.992;8.422;2023-07-13T09:58:59;25.00;1.00
5459;DHT22;2752;49.992;8.422;2023-07-13T10:01:34;25.20;1.00
5459;DHT22;2752;49.992;8.422;2023-07-13T10:04:01;25.20;1.00
5459;DHT22;2752;49.992;8.422;2023-07-13T10:06:30;25.40;1.00
5459;DHT22;2752;49.992;8.422;2023-07-13T10:08:57;25.20;1.00
5459;DHT22;2752;49.992;8.422;2023-07-13T10:13:53;25.00;1.00
5459;DHT22;2752;49.992;8.422;2023-07-13T10:16:22;25.00;1.00
5459;DHT22;2752;49.992;8.422;2023-07-13T10:18:51;25.20;1.00
5459;DHT22;2752;49.992;8.422;2023-07-13T10:21:21;24.90;1.00
5459;DHT22;2752;49.992;8.422;2023-07-13T10:23:52;24.90;1.00
5459;DHT22;2752;49.992;8.422;2023-07-13T10:26:25;24.90;1.00
5459;DHT22;2752;49.992;8.422;2023-07-13T10:28:54;25.00;1.00
5459;DHT22;2752;49.992;8.422;2023-07-13T10:31:23;25.10;1.00
5459;DHT22;2752;49.992;8.422;2023-07-13T10:33:49;25.10;1.00
5459;DHT22;2752;49.992;8.422;2023-07-13T10:36:24;24.80;1.00
5459;DHT22;2752;49.992;8.422;2023-07-13T10:41:26;24.60;1.00
5459;DHT22;2752;49.992;8.422;2023-07-13T10:43:55;24.90;1.00
5459;DHT22;2752;49.992;8.422;2023-07-13T10:46:24;25.10;1.00
5459;DHT22;2752;49.992;8.422;2023-07-13T10:48:54;25.20;1.00
5459;DHT22;2752;49.992;8.422;2023-07-13T10:54:14;24.90;1.00
5459;DHT22;2752;49.992;8.422;2023-07-13T10:56:42;25.10;1.00
5459;DHT22;2752;49.992;8.422;2023-07-13T10:59:12;25.60;1.00
5459;DHT22;2752;49.992;8.422;2023-07-13T11:01:46;25.60;1.00
5459;DHT22;2752;49.992;8.422;2023-07-13T11:04:19;25.40;1.00
5459;DHT22;2752;49.992;8.422;2023-07-13T11:06:48;25.40;1.00
5459;DHT22;2752;49.992;8.422;2023-07-13T11:12:07;24.90;1.00
5459;DHT22;2752;49.992;8.422;2023-07-13T11:14:36;24.80;1.00
5459;DHT22;2752;49.992;8.422;2023-07-13T11:17:35;24.90;1.00
5459;DHT22;2752;49.992;8.422;2023-07-13T11:20:19;25.10;1.00
5459;DHT22;2752;49.992;8.422;2023-07-13T11:22:50;25.30;1.00
5459;DHT22;2752;49.992;8.422;2023-07-13T11:25:29;25.70;1.00
5459;DHT22;2752;49.992;8.422;2023-07-13T11:28:16;25.60;1.00
5459;DHT22;2752;49.992;8.422;2023-07-13T11:30:46;25.20;1.00
5459;DHT22;2752;49.992;8.422;2023-07-13T11:33:16;25.10;1.00
5459;DHT22;2752;49.992;8.422;2023-07-13T11:35:58;25.20;1.00
5459;DHT22;2752;49.992;8.422;2023-07-13T11:38:32;25.50;1.00
5459;DHT22;2752;49.992;8.422;2023-07-13T11:41:03;25.70;1.00
5459;DHT22;2752;49.992;8.422;2023-07-13T11:43:30;25.60;1.00
5459;DHT22;2752;49.992;8.422;2023-07-13T11:46:11;25.60;1.00
5459;DHT22;2752;49.992;8.422;2023-07-13T11:48:38;26.00;1.00
5459;DHT22;2752;49.992;8.422;2023-07-13T11:51:06;26.20;1.00
5459;DHT22;2752;49.992;8.422;2023-07-13T11:53:39;26.20;1.00
5459;DHT22;2752;49.992;8.422;2023-07-13T11:56:08;26.30;1.00
5459;DHT22;2752;49.992;8.422;2023-07-13T12:01:02;26.20;1.00
5459;DHT22;2752;49.992;8.422;2023-07-13T12:03:32;26.30;1.00
5459;DHT22;2752;49.992;8.422;2023-07-13T12:06:02;26.20;1.00
5459;DHT22;2752;49.992;8.422;2023-07-13T12:08:31;26.40;1.00
5459;DHT22;2752;49.992;8.422;2023-07-13T12:11:03;26.40;1.00
5459;DHT22;2752;49.992;8.422;2023-07-13T12:13:37;26.40;1.00
5459;DHT22;2752;49.992;8.422;2023-07-13T12:18:38;26.00;1.00
5459;DHT22;2752;49.992;8.422;2023-07-13T12:21:05;26.00;1.00
5459;DHT22;2752;49.992;8.422;2023-07-13T12:23:36;26.20;1.00
5459;DHT22;2752;49.992;8.422;2023-07-13T12:26:05;26.40;1.00
5459;DHT22;2752;49.992;8.422;2023-07-13T12:28:37;26.60;1.00
5459;DHT22;2752;49.992;8.422;2023-07-13T12:31:06;26.30;1.00
5459;DHT22;2752;49.992;8.422;2023-07-13T12:33:33;26.20;1.00
5459;DHT22;2752;49.992;8.422;2023-07-13T12:36:05;26.20;1.00
5459;DHT22;2752;49.992;8.422;2023-07-13T12:38:32;26.20;1.00
5459;DHT22;2752;49.992;8.422;2023-07-13T12:41:01;26.00;1.00
5459;DHT22;2752;49.992;8.422;2023-07-13T12:43:34;26.00;1.00
5459;DHT22;2752;49.992;8.422;2023-07-13T12:48:39;26.10;1.00
5459;DHT22;2752;49.992;8.422;2023-07-13T12:51:10;26.20;1.00
5459;DHT22;2752;49.992;8.422;2023-07-13T12:53:40;26.10;1.00
5459;DHT22;2752;49.992;8.422;2023-07-13T12:56:16;26.00;1.00
5459;DHT22;2752;49.992;8.422;2023-07-13T12:58:45;26.00;1.00
5459;DHT22;2752;49.992;8.422;2023-07-13T13:01:17;25.90;1.00
5459;DHT22;2752;49.992;8.422;2023-07-13T13:03:46;25.90;1.00
5459;DHT22;2752;49.992;8.422;2023-07-13T13:08:50;26.10;1.00
5459;DHT22;2752;49.992;8.422;2023-07-13T13:11:19;26.00;1.00
5459;DHT22;2752;49.992;8.422;2023-07-13T13:13:46;26.00;1.00
5459;DHT22;2752;49.992;8.422;2023-07-13T13:16:20;26.00;1.00
5459;DHT22;2752;49.992;8.422;2023-07-13T13:18:47;26.00;1.00
5459;DHT22;2752;49.992;8.422;2023-07-13T13:21:15;26.00;1.00
5459;DHT22;2752;49.992;8.422;2023-07-13T13:23:42;26.10;1.00
5459;DHT22;2752;49.992;8.422;2023-07-13T13:26:11;26.30;1.00
5459;DHT22;2752;49.992;8.422;2023-07-13T13:28:38;26.30;1.00
5459;DHT22;2752;49.992;8.422;2023-07-13T13:31:04;26.10;1.00
5459;DHT22;2752;49.992;8.422;2023-07-13T13:33:32;26.10;1.00
5459;DHT22;2752;49.992;8.422;2023-07-13T13:35:59;26.00;1.00
5459;DHT22;2752;49.992;8.422;2023-07-13T13:38:27;26.20;1.00
5459;DHT22;2752;49.992;8.422;2023-07-13T13:40:54;26.40;1.00
5459;DHT22;2752;49.992;8.422;2023-07-13T13:45:52;26.50;1.00
5459;DHT22;2752;49.992;8.422;2023-07-13T13:48:23;26.50;1.00
5459;DHT22;2752;49.992;8.422;2023-07-13T13:50:57;26.50;1.00
5459;DHT22;2752;49.992;8.422;2023-07-13T13:53:24;26.50;1.00
5459;DHT22;2752;49.992;8.422;2023-07-13T13:55:51;26.20;1.00
5459;DHT22;2752;49.992;8.422;2023-07-13T13:58:18;26.10;1.00
5459;DHT22;2752;49.992;8.422;2023-07-13T14:00:46;26.00;1.00
5459;DHT22;2752;49.992;8.422;2023-07-13T14:03:15;26.00;1.00
5459;DHT22;2752;49.992;8.422;2023-07-13T14:05:42;26.10;1.00
5459;DHT22;2752;49.992;8.422;2023-07-13T14:08:14;26.30;1.00
5459;DHT22;2752;49.992;8.422;2023-07-13T14:10:41;26.40;1.00
5459;DHT22;2752;49.992;8.422;2023-07-13T14:13:16;26.50;1.00
5459;DHT22;2752;49.992;8.422;2023-07-13T14:15:44;26.50;1.00
5459;DHT22;2752;49.992;8.422;2023-07-13T14:18:11;26.30;1.00
5459;DHT22;2752;49.992;8.422;2023-07-13T14:20:43;26.20;1.00
5459;DHT22;2752;49.992;8.422;2023-07-13T14:23:09;26.20;1.00
5459;DHT22;2752;49.992;8.422;2023-07-13T14:25:37;26.20;1.00
5459;DHT22;2752;49.992;8.422;2023-07-13T14:28:21;26.20;1.00
5459;DHT22;2752;49.992;8.422;2023-07-13T14:30:48;26.20;1.00
5459;DHT22;2752;49.992;8.422;2023-07-13T14:33:15;26.10;1.00
5459;DHT22;2752;49.992;8.422;2023-07-13T14:35:41;25.90;1.00
5459;DHT22;2752;49.992;8.422;2023-07-13T14:38:11;25.80;1.00
5459;DHT22;2752;49.992;8.422;2023-07-13T14:40:40;25.50;1.00
5459;DHT22;2752;49.992;8.422;2023-07-13T14:43:10;25.20;1.00
5459;DHT22;2752;49.992;8.422;2023-07-13T14:45:39;25.00;1.00
5459;DHT22;2752;49.992;8.422;2023-07-13T14:48:14;24.90;1.00
5459;DHT22;2752;49.992;8.422;2023-07-13T14:50:41;24.80;1.00
5459;DHT22;2752;49.992;8.422;2023-07-13T14:53:10;24.60;1.00
5459;DHT22;2752;49.992;8.422;2023-07-13T14:55:37;24.70;1.00
5459;DHT22;2752;49.992;8.422;2023-07-13T14:58:05;24.70;1.00
5459;DHT22;2752;49.992;8.422;2023-07-13T15:00:33;24.80;1.00
5459;DHT22;2752;49.992;8.422;2023-07-13T15:03:00;24.90;1.00
5459;DHT22;2752;49.992;8.422;2023-07-13T15:07:57;24.90;1.00
5459;DHT22;2752;49.992;8.422;2023-07-13T15:10:26;25.00;1.00
5459;DHT22;2752;49.992;8.422;2023-07-13T15:12:58;25.00;1.00
5459;DHT22;2752;49.992;8.422;2023-07-13T15:15:28;25.00;1.00
5459;DHT22;2752;49.992;8.422;2023-07-13T15:17:56;24.90;1.00
5459;DHT22;2752;49.992;8.422;2023-07-13T15:20:26;24.90;1.00
5459;DHT22;2752;49.992;8.422;2023-07-13T15:22:53;25.00;1.00
5459;DHT22;2752;49.992;8.422;2023-07-13T15:25:21;25.00;1.00
5459;DHT22;2752;49.992;8.422;2023-07-13T15:27:49;25.00;1.00
5459;DHT22;2752;49.992;8.422;2023-07-13T15:30:16;25.00;1.00
5459;DHT22;2752;49.992;8.422;2023-07-13T15:32:45;25.10;1.00
5459;DHT22;2752;49.992;8.422;2023-07-13T15:35:16;25.10;1.00
5459;DHT22;2752;49.992;8.422;2023-07-13T15:37:43;25.40;1.00
5459;DHT22;2752;49.992;8.422;2023-07-13T15:40:11;25.70;1.00
5459;DHT22;2752;49.992;8.422;2023-07-13T15:42:39;26.00;1.00
5459;DHT22;2752;49.992;8.422;2023-07-13T15:45:14;26.20;1.00
5459;DHT22;2752;49.992;8.422;2023-07-13T15:47:42;26.40;1.00
5459;DHT22;2752;49.992;8.422;2023-07-13T15:52:41;26.60;1.00
5459;DHT22;2752;49.992;8.422;2023-07-13T15:55:10;26.60;1.00
5459;DHT22;2752;49.992;8.422;2023-07-13T15:57:37;26.60;1.00
5459;DHT22;2752;49.992;8.422;2023-07-13T16:00:14;26.70;1.00
5459;DHT22;2752;49.992;8.422;2023-07-13T16:05:10;26.70;1.00
5459;DHT22;2752;49.992;8.422;2023-07-13T16:07:38;26.60;1.00
5459;DHT22;2752;49.992;8.422;2023-07-13T16:10:05;26.80;1.00
5459;DHT22;2752;49.992;8.422;2023-07-13T16:12:32;26.70;1.00
5459;DHT22;2752;49.992;8.422;2023-07-13T16:15:00;26.60;1.00
5459;DHT22;2752;49.992;8.422;2023-07-13T16:17:26;26.80;1.00
5459;DHT22;2752;49.992;8.422;2023-07-13T16:19:53;27.10;1.00
5459;DHT22;2752;49.992;8.422;2023-07-13T16:22:21;26.90;1.00
5459;DHT22;2752;49.992;8.422;2023-07-13T16:24:49;26.90;1.00
5459;DHT22;2752;49.992;8.422;2023-07-13T16:27:20;26.90;1.00
5459;DHT22;2752;49.992;8.422;2023-07-13T16:29:49;27.00;1.00
5459;DHT22;2752;49.992;8.422;2023-07-13T16:32:16;27.00;1.00
5459;DHT22;2752;49.992;8.422;2023-07-13T16:34:43;27.10;1.00
5459;DHT22;2752;49.992;8.422;2023-07-13T16:37:15;27.00;1.00
5459;DHT22;2752;49.992;8.422;2023-07-13T16:39:46;27.40;1.00
5459;DHT22;2752;49.992;8.422;2023-07-13T16:42:15;27.50;1.00
5459;DHT22;2752;49.992;8.422;2023-07-13T16:44:42;27.60;1.00
5459;DHT22;2752;49.992;8.422;2023-07-13T16:47:13;27.30;1.00
5459;DHT22;2752;49.992;8.422;2023-07-13T16:49:40;27.30;1.00
5459;DHT22;2752;49.992;8.422;2023-07-13T16:54:38;27.70;1.00
5459;DHT22;2752;49.992;8.422;2023-07-13T16:57:12;28.00;1.00
5459;DHT22;2752;49.992;8.422;2023-07-13T16:59:41;27.90;1.00
5459;DHT22;2752;49.992;8.422;2023-07-13T17:02:29;28.20;1.00
5459;DHT22;2752;49.992;8.422;2023-07-13T17:04:56;28.20;1.00
5459;DHT22;2752;49.992;8.422;2023-07-13T17:07:23;28.30;1.00
5459;DHT22;2752;49.992;8.422;2023-07-13T17:09:50;28.40;1.00
5459;DHT22;2752;49.992;8.422;2023-07-13T17:12:17;28.60;1.00
5459;DHT22;2752;49.992;8.422;2023-07-13T17:14:46;28.90;1.00
5459;DHT22;2752;49.992;8.422;2023-07-13T17:17:15;29.00;1.00
5459;DHT22;2752;49.992;8.422;2023-07-13T17:19:43;28.70;1.00
5459;DHT22;2752;49.992;8.422;2023-07-13T17:22:11;27.80;1.00
5459;DHT22;2752;49.992;8.422;2023-07-13T17:24:44;27.00;1.00
5459;DHT22;2752;49.992;8.422;2023-07-13T17:27:10;26.70;1.00
5459;DHT22;2752;49.992;8.422;2023-07-13T17:34:36;27.20;1.00
5459;DHT22;2752;49.992;8.422;2023-07-13T17:37:12;27.50;1.00